Villa Beach, Washington
Current Conditions -  °F | °C
As of 11:58 PM on Monday 20 Oct 2014 (Local Time) from KGRF Reporting Station
Clear Clear  
Wind Chill: 51°   Ceiling: Unl
Heat Index: 51°   Visibility: 10mi
Dew Point: 50°   Wind: 3mph
Humidity: 99%   Direction: 150°SSE
Pressure: 29.8"   Gusts: NA
Location:  47.1608°N, 122.692°W
Report Text: KGRF 210658Z AUTO 15003KT 10SM CLR 10/10 A2980 RMK AO2 SLP095 P0000 T01030101 $
Loading
Personal Weather Stations






























Interactive Weather Map
Tropical Storm Tracking
New forecast layout! Learn more

10-Day Weather Forecast

Advertisements
Track Severe Weather on mobile